sensor_id;sensor_type;location;lat;lon;timestamp;P1;durP1;ratioP1;P2;durP2;ratioP2
64682;SDS011;51107;47.652;19.016;2023-12-07T00:01:58;0.62;;;0.30;;
64682;SDS011;51107;47.652;19.016;2023-12-07T00:04:27;0.10;;;0.10;;
64682;SDS011;51107;47.652;19.016;2023-12-07T00:06:56;0.20;;;0.20;;
64682;SDS011;51107;47.652;19.016;2023-12-07T00:09:24;1.27;;;0.30;;
64682;SDS011;51107;47.652;19.016;2023-12-07T00:11:53;0.77;;;0.32;;
64682;SDS011;51107;47.652;19.016;2023-12-07T00:18:00;0.95;;;0.65;;
64682;SDS011;51107;47.652;19.016;2023-12-07T00:20:31;0.62;;;0.20;;
64682;SDS011;51107;47.652;19.016;2023-12-07T00:22:59;1.30;;;0.80;;
64682;SDS011;51107;47.652;19.016;2023-12-07T00:25:28;0.35;;;0.30;;
64682;SDS011;51107;47.652;19.016;2023-12-07T00:27:57;0.22;;;0.22;;
64682;SDS011;51107;47.652;19.016;2023-12-07T00:30:25;0.62;;;0.40;;
64682;SDS011;51107;47.652;19.016;2023-12-07T00:32:53;4.55;;;0.47;;
64682;SDS011;51107;47.652;19.016;2023-12-07T00:35:22;1.17;;;0.30;;
64682;SDS011;51107;47.652;19.016;2023-12-07T00:37:50;0.73;;;0.22;;
64682;SDS011;51107;47.652;19.016;2023-12-07T00:40:18;0.35;;;0.30;;
64682;SDS011;51107;47.652;19.016;2023-12-07T00:42:47;1.65;;;1.15;;
64682;SDS011;51107;47.652;19.016;2023-12-07T00:45:15;0.20;;;0.20;;
64682;SDS011;51107;47.652;19.016;2023-12-07T00:47:43;1.70;;;0.68;;
64682;SDS011;51107;47.652;19.016;2023-12-07T00:50:12;1.15;;;0.55;;
64682;SDS011;51107;47.652;19.016;2023-12-07T00:52:43;0.43;;;0.43;;
64682;SDS011;51107;47.652;19.016;2023-12-07T00:55:13;0.47;;;0.43;;
64682;SDS011;51107;47.652;19.016;2023-12-07T00:57:42;0.32;;;0.20;;
64682;SDS011;51107;47.652;19.016;2023-12-07T01:00:10;0.75;;;0.30;;
64682;SDS011;51107;47.652;19.016;2023-12-07T01:02:39;0.35;;;0.35;;
64682;SDS011;51107;47.652;19.016;2023-12-07T01:05:08;0.43;;;0.28;;
64682;SDS011;51107;47.652;19.016;2023-12-07T01:07:36;0.20;;;0.20;;
64682;SDS011;51107;47.652;19.016;2023-12-07T01:10:05;0.70;;;0.35;;
64682;SDS011;51107;47.652;19.016;2023-12-07T01:12:34;0.60;;;0.28;;
64682;SDS011;51107;47.652;19.016;2023-12-07T01:15:03;0.73;;;0.37;;
64682;SDS011;51107;47.652;19.016;2023-12-07T01:17:32;1.08;;;0.73;;
64682;SDS011;51107;47.652;19.016;2023-12-07T01:20:01;0.68;;;0.37;;
64682;SDS011;51107;47.652;19.016;2023-12-07T01:22:31;0.17;;;0.17;;
64682;SDS011;51107;47.652;19.016;2023-12-07T01:25:00;0.43;;;0.30;;
64682;SDS011;51107;47.652;19.016;2023-12-07T01:27:29;0.25;;;0.17;;
64682;SDS011;51107;47.652;19.016;2023-12-07T01:29:57;0.20;;;0.20;;
64682;SDS011;51107;47.652;19.016;2023-12-07T01:32:25;3.92;;;0.37;;
64682;SDS011;51107;47.652;19.016;2023-12-07T01:34:54;0.20;;;0.20;;
64682;SDS011;51107;47.652;19.016;2023-12-07T01:37:22;0.32;;;0.30;;
64682;SDS011;51107;47.652;19.016;2023-12-07T01:39:51;0.47;;;0.10;;
64682;SDS011;51107;47.652;19.016;2023-12-07T01:42:20;0.10;;;0.10;;
64682;SDS011;51107;47.652;19.016;2023-12-07T01:44:48;0.25;;;0.25;;
64682;SDS011;51107;47.652;19.016;2023-12-07T01:47:16;0.30;;;0.15;;
64682;SDS011;51107;47.652;19.016;2023-12-07T01:49:45;0.10;;;0.10;;
64682;SDS011;51107;47.652;19.016;2023-12-07T01:52:13;0.47;;;0.37;;
64682;SDS011;51107;47.652;19.016;2023-12-07T01:54:42;3.85;;;1.00;;
64682;SDS011;51107;47.652;19.016;2023-12-07T01:57:10;0.68;;;0.40;;
64682;SDS011;51107;47.652;19.016;2023-12-07T01:59:39;3.70;;;1.00;;
64682;SDS011;51107;47.652;19.016;2023-12-07T02:02:07;1.35;;;0.82;;
64682;SDS011;51107;47.652;19.016;2023-12-07T02:04:36;1.77;;;0.65;;
64682;SDS011;51107;47.652;19.016;2023-12-07T02:07:05;0.20;;;0.15;;
64682;SDS011;51107;47.652;19.016;2023-12-07T02:09:34;0.60;;;0.35;;
64682;SDS011;51107;47.652;19.016;2023-12-07T02:12:02;0.62;;;0.32;;
64682;SDS011;51107;47.652;19.016;2023-12-07T02:14:31;0.28;;;0.28;;
64682;SDS011;51107;47.652;19.016;2023-12-07T02:17:08;0.47;;;0.40;;
64682;SDS011;51107;47.652;19.016;2023-12-07T02:20:10;0.30;;;0.30;;
64682;SDS011;51107;47.652;19.016;2023-12-07T02:22:46;0.37;;;0.30;;
64682;SDS011;51107;47.652;19.016;2023-12-07T02:25:23;0.30;;;0.30;;
64682;SDS011;51107;47.652;19.016;2023-12-07T02:27:53;0.13;;;0.13;;
64682;SDS011;51107;47.652;19.016;2023-12-07T02:30:23;0.15;;;0.15;;
64682;SDS011;51107;47.652;19.016;2023-12-07T02:32:51;0.10;;;0.10;;
64682;SDS011;51107;47.652;19.016;2023-12-07T02:35:19;0.20;;;0.20;;
64682;SDS011;51107;47.652;19.016;2023-12-07T02:37:49;0.15;;;0.13;;
64682;SDS011;51107;47.652;19.016;2023-12-07T02:40:19;0.10;;;0.03;;
64682;SDS011;51107;47.652;19.016;2023-12-07T02:42:51;0.20;;;0.20;;
64682;SDS011;51107;47.652;19.016;2023-12-07T02:45:20;0.00;;;0.00;;
64682;SDS011;51107;47.652;19.016;2023-12-07T02:47:49;3.03;;;0.40;;
64682;SDS011;51107;47.652;19.016;2023-12-07T02:50:17;0.00;;;0.00;;
64682;SDS011;51107;47.652;19.016;2023-12-07T02:52:46;0.43;;;0.30;;
64682;SDS011;51107;47.652;19.016;2023-12-07T02:55:14;0.10;;;0.03;;
64682;SDS011;51107;47.652;19.016;2023-12-07T02:57:43;0.55;;;0.37;;
64682;SDS011;51107;47.652;19.016;2023-12-07T03:00:11;8.30;;;2.15;;
64682;SDS011;51107;47.652;19.016;2023-12-07T03:02:41;7.18;;;3.25;;
64682;SDS011;51107;47.652;19.016;2023-12-07T03:05:10;8.10;;;3.28;;
64682;SDS011;51107;47.652;19.016;2023-12-07T03:07:38;6.47;;;3.15;;
64682;SDS011;51107;47.652;19.016;2023-12-07T03:10:06;9.18;;;2.60;;
64682;SDS011;51107;47.652;19.016;2023-12-07T03:12:35;13.52;;;4.65;;
64682;SDS011;51107;47.652;19.016;2023-12-07T03:15:03;5.62;;;3.17;;
64682;SDS011;51107;47.652;19.016;2023-12-07T03:17:32;7.72;;;4.80;;
64682;SDS011;51107;47.652;19.016;2023-12-07T03:20:01;12.23;;;5.35;;
64682;SDS011;51107;47.652;19.016;2023-12-07T03:22:29;3.53;;;2.05;;
64682;SDS011;51107;47.652;19.016;2023-12-07T03:24:57;3.35;;;1.50;;
64682;SDS011;51107;47.652;19.016;2023-12-07T03:27:26;5.10;;;2.15;;
64682;SDS011;51107;47.652;19.016;2023-12-07T03:29:56;6.32;;;2.53;;
64682;SDS011;51107;47.652;19.016;2023-12-07T03:32:24;8.52;;;3.10;;
64682;SDS011;51107;47.652;19.016;2023-12-07T03:34:53;9.85;;;3.65;;
64682;SDS011;51107;47.652;19.016;2023-12-07T03:37:21;4.70;;;1.27;;
64682;SDS011;51107;47.652;19.016;2023-12-07T03:39:49;6.72;;;1.27;;
64682;SDS011;51107;47.652;19.016;2023-12-07T03:42:18;2.03;;;1.30;;
64682;SDS011;51107;47.652;19.016;2023-12-07T03:45:06;2.67;;;0.85;;
64682;SDS011;51107;47.652;19.016;2023-12-07T03:47:35;1.70;;;0.90;;
64682;SDS011;51107;47.652;19.016;2023-12-07T03:50:03;1.12;;;0.60;;
64682;SDS011;51107;47.652;19.016;2023-12-07T03:52:32;1.33;;;0.88;;
64682;SDS011;51107;47.652;19.016;2023-12-07T03:55:00;2.03;;;1.08;;
64682;SDS011;51107;47.652;19.016;2023-12-07T03:57:29;5.47;;;1.90;;
64682;SDS011;51107;47.652;19.016;2023-12-07T03:59:57;1.33;;;0.85;;
64682;SDS011;51107;47.652;19.016;2023-12-07T04:02:26;1.75;;;0.52;;
64682;SDS011;51107;47.652;19.016;2023-12-07T04:04:55;1.37;;;0.68;;
64682;SDS011;51107;47.652;19.016;2023-12-07T04:07:23;0.60;;;0.47;;
64682;SDS011;51107;47.652;19.016;2023-12-07T04:09:51;0.57;;;0.47;;
64682;SDS011;51107;47.652;19.016;2023-12-07T04:12:20;0.20;;;0.13;;
64682;SDS011;51107;47.652;19.016;2023-12-07T04:14:49;0.40;;;0.30;;
64682;SDS011;51107;47.652;19.016;2023-12-07T04:17:19;0.60;;;0.43;;
64682;SDS011;51107;47.652;19.016;2023-12-07T04:19:49;5.37;;;2.33;;
64682;SDS011;51107;47.652;19.016;2023-12-07T04:22:17;2.28;;;1.42;;
64682;SDS011;51107;47.652;19.016;2023-12-07T04:24:45;1.83;;;1.12;;
64682;SDS011;51107;47.652;19.016;2023-12-07T04:27:14;1.15;;;0.85;;
64682;SDS011;51107;47.652;19.016;2023-12-07T04:29:42;12.45;;;5.32;;
64682;SDS011;51107;47.652;19.016;2023-12-07T04:32:11;19.45;;;3.10;;
64682;SDS011;51107;47.652;19.016;2023-12-07T04:34:39;4.07;;;2.40;;
64682;SDS011;51107;47.652;19.016;2023-12-07T04:37:08;10.30;;;3.75;;
64682;SDS011;51107;47.652;19.016;2023-12-07T04:39:36;9.80;;;4.75;;
64682;SDS011;51107;47.652;19.016;2023-12-07T04:42:05;7.65;;;3.78;;
64682;SDS011;51107;47.652;19.016;2023-12-07T04:44:33;4.07;;;1.98;;
64682;SDS011;51107;47.652;19.016;2023-12-07T04:47:02;10.23;;;3.30;;
64682;SDS011;51107;47.652;19.016;2023-12-07T04:49:30;16.75;;;4.03;;
64682;SDS011;51107;47.652;19.016;2023-12-07T04:51:59;5.40;;;2.80;;
64682;SDS011;51107;47.652;19.016;2023-12-07T04:54:27;6.18;;;2.62;;
64682;SDS011;51107;47.652;19.016;2023-12-07T04:56:55;3.97;;;2.83;;
64682;SDS011;51107;47.652;19.016;2023-12-07T04:59:24;6.07;;;2.17;;
64682;SDS011;51107;47.652;19.016;2023-12-07T05:01:52;4.78;;;2.65;;
64682;SDS011;51107;47.652;19.016;2023-12-07T05:04:21;4.57;;;2.45;;
64682;SDS011;51107;47.652;19.016;2023-12-07T05:06:50;3.08;;;1.67;;
64682;SDS011;51107;47.652;19.016;2023-12-07T05:09:19;2.92;;;1.42;;
64682;SDS011;51107;47.652;19.016;2023-12-07T05:11:47;1.05;;;0.80;;
64682;SDS011;51107;47.652;19.016;2023-12-07T05:14:16;1.85;;;1.48;;
64682;SDS011;51107;47.652;19.016;2023-12-07T05:16:44;2.53;;;1.17;;
64682;SDS011;51107;47.652;19.016;2023-12-07T05:19:16;3.22;;;0.82;;
64682;SDS011;51107;47.652;19.016;2023-12-07T05:21:44;1.37;;;0.80;;
64682;SDS011;51107;47.652;19.016;2023-12-07T05:24:13;1.45;;;0.77;;
64682;SDS011;51107;47.652;19.016;2023-12-07T05:26:41;1.48;;;0.60;;
64682;SDS011;51107;47.652;19.016;2023-12-07T05:29:10;2.08;;;1.23;;
64682;SDS011;51107;47.652;19.016;2023-12-07T05:31:39;0.43;;;0.28;;
64682;SDS011;51107;47.652;19.016;2023-12-07T05:34:08;0.17;;;0.13;;
64682;SDS011;51107;47.652;19.016;2023-12-07T05:36:37;0.30;;;0.30;;
64682;SDS011;51107;47.652;19.016;2023-12-07T05:39:05;0.20;;;0.20;;
64682;SDS011;51107;47.652;19.016;2023-12-07T05:41:35;1.05;;;0.40;;
64682;SDS011;51107;47.652;19.016;2023-12-07T05:44:03;0.40;;;0.37;;
64682;SDS011;51107;47.652;19.016;2023-12-07T05:46:32;0.35;;;0.35;;
64682;SDS011;51107;47.652;19.016;2023-12-07T05:49:03;0.30;;;0.30;;
64682;SDS011;51107;47.652;19.016;2023-12-07T05:51:31;1.10;;;0.85;;
64682;SDS011;51107;47.652;19.016;2023-12-07T05:54:00;0.25;;;0.22;;
64682;SDS011;51107;47.652;19.016;2023-12-07T05:56:28;0.40;;;0.30;;
64682;SDS011;51107;47.652;19.016;2023-12-07T05:58:56;0.37;;;0.30;;
64682;SDS011;51107;47.652;19.016;2023-12-07T06:01:25;0.70;;;0.50;;
64682;SDS011;51107;47.652;19.016;2023-12-07T06:03:53;0.73;;;0.40;;
64682;SDS011;51107;47.652;19.016;2023-12-07T06:06:22;0.75;;;0.40;;
64682;SDS011;51107;47.652;19.016;2023-12-07T06:08:50;1.62;;;0.70;;
64682;SDS011;51107;47.652;19.016;2023-12-07T06:11:22;0.10;;;0.10;;
64682;SDS011;51107;47.652;19.016;2023-12-07T06:13:50;0.52;;;0.45;;
64682;SDS011;51107;47.652;19.016;2023-12-07T06:16:21;0.20;;;0.20;;
64682;SDS011;51107;47.652;19.016;2023-12-07T06:18:50;0.73;;;0.37;;
64682;SDS011;51107;47.652;19.016;2023-12-07T06:21:18;0.10;;;0.10;;
64682;SDS011;51107;47.652;19.016;2023-12-07T06:23:47;0.40;;;0.35;;
64682;SDS011;51107;47.652;19.016;2023-12-07T06:26:16;0.30;;;0.30;;
64682;SDS011;51107;47.652;19.016;2023-12-07T06:28:44;1.48;;;0.32;;
64682;SDS011;51107;47.652;19.016;2023-12-07T06:31:13;0.10;;;0.10;;
64682;SDS011;51107;47.652;19.016;2023-12-07T06:33:43;4.57;;;0.60;;
64682;SDS011;51107;47.652;19.016;2023-12-07T06:36:23;1.42;;;0.93;;
64682;SDS011;51107;47.652;19.016;2023-12-07T06:38:54;0.65;;;0.62;;
64682;SDS011;51107;47.652;19.016;2023-12-07T06:41:26;2.45;;;1.67;;
64682;SDS011;51107;47.652;19.016;2023-12-07T06:43:54;5.62;;;1.80;;
64682;SDS011;51107;47.652;19.016;2023-12-07T06:46:25;3.33;;;1.00;;
64682;SDS011;51107;47.652;19.016;2023-12-07T06:48:54;2.47;;;1.75;;
64682;SDS011;51107;47.652;19.016;2023-12-07T06:51:23;0.55;;;0.55;;
64682;SDS011;51107;47.652;19.016;2023-12-07T06:53:52;3.67;;;1.02;;
64682;SDS011;51107;47.652;19.016;2023-12-07T06:56:20;0.20;;;0.20;;
64682;SDS011;51107;47.652;19.016;2023-12-07T06:58:49;1.25;;;0.65;;
64682;SDS011;51107;47.652;19.016;2023-12-07T07:01:17;1.02;;;0.75;;
64682;SDS011;51107;47.652;19.016;2023-12-07T07:03:45;0.95;;;0.70;;
64682;SDS011;51107;47.652;19.016;2023-12-07T07:06:14;2.40;;;1.23;;
64682;SDS011;51107;47.652;19.016;2023-12-07T07:08:43;6.70;;;2.12;;
64682;SDS011;51107;47.652;19.016;2023-12-07T07:11:12;21.48;;;7.37;;
64682;SDS011;51107;47.652;19.016;2023-12-07T07:13:42;17.92;;;8.45;;
64682;SDS011;51107;47.652;19.016;2023-12-07T07:16:10;11.80;;;4.95;;
64682;SDS011;51107;47.652;19.016;2023-12-07T07:18:39;7.95;;;4.50;;
64682;SDS011;51107;47.652;19.016;2023-12-07T07:21:08;12.73;;;5.22;;
64682;SDS011;51107;47.652;19.016;2023-12-07T07:23:36;25.85;;;8.90;;
64682;SDS011;51107;47.652;19.016;2023-12-07T07:26:05;15.73;;;6.43;;
64682;SDS011;51107;47.652;19.016;2023-12-07T07:28:34;13.60;;;5.37;;
64682;SDS011;51107;47.652;19.016;2023-12-07T07:31:02;8.20;;;4.97;;
64682;SDS011;51107;47.652;19.016;2023-12-07T07:33:31;7.47;;;2.97;;
64682;SDS011;51107;47.652;19.016;2023-12-07T07:36:00;9.90;;;4.10;;
64682;SDS011;51107;47.652;19.016;2023-12-07T07:38:28;9.05;;;4.68;;
64682;SDS011;51107;47.652;19.016;2023-12-07T07:40:57;10.85;;;5.53;;
64682;SDS011;51107;47.652;19.016;2023-12-07T07:43:26;12.32;;;5.47;;
64682;SDS011;51107;47.652;19.016;2023-12-07T07:45:54;10.90;;;4.43;;
64682;SDS011;51107;47.652;19.016;2023-12-07T07:48:24;9.77;;;4.57;;
64682;SDS011;51107;47.652;19.016;2023-12-07T07:50:54;11.90;;;5.80;;
64682;SDS011;51107;47.652;19.016;2023-12-07T07:53:22;8.82;;;4.70;;
64682;SDS011;51107;47.652;19.016;2023-12-07T07:55:52;9.05;;;4.10;;
64682;SDS011;51107;47.652;19.016;2023-12-07T07:58:20;11.68;;;4.47;;
64682;SDS011;51107;47.652;19.016;2023-12-07T08:00:49;15.73;;;5.80;;
64682;SDS011;51107;47.652;19.016;2023-12-07T08:03:18;9.60;;;4.32;;
64682;SDS011;51107;47.652;19.016;2023-12-07T08:05:46;21.42;;;8.45;;
64682;SDS011;51107;47.652;19.016;2023-12-07T08:08:15;35.20;;;12.48;;
64682;SDS011;51107;47.652;19.016;2023-12-07T08:10:43;65.87;;;19.98;;
64682;SDS011;51107;47.652;19.016;2023-12-07T08:13:23;46.83;;;16.25;;
64682;SDS011;51107;47.652;19.016;2023-12-07T08:15:51;52.33;;;15.18;;
64682;SDS011;51107;47.652;19.016;2023-12-07T08:18:25;49.08;;;12.57;;
64682;SDS011;51107;47.652;19.016;2023-12-07T08:20:55;28.05;;;10.93;;
64682;SDS011;51107;47.652;19.016;2023-12-07T08:23:23;38.15;;;13.45;;
64682;SDS011;51107;47.652;19.016;2023-12-07T08:25:51;28.70;;;13.20;;
64682;SDS011;51107;47.652;19.016;2023-12-07T08:28:20;25.12;;;8.65;;
64682;SDS011;51107;47.652;19.016;2023-12-07T08:30:48;31.02;;;10.45;;
64682;SDS011;51107;47.652;19.016;2023-12-07T08:33:16;18.27;;;9.23;;
64682;SDS011;51107;47.652;19.016;2023-12-07T08:35:45;16.33;;;8.85;;
64682;SDS011;51107;47.652;19.016;2023-12-07T08:38:14;27.92;;;12.70;;
64682;SDS011;51107;47.652;19.016;2023-12-07T08:40:42;16.00;;;8.35;;
64682;SDS011;51107;47.652;19.016;2023-12-07T08:43:11;14.15;;;7.82;;
64682;SDS011;51107;47.652;19.016;2023-12-07T08:45:39;11.65;;;7.32;;
64682;SDS011;51107;47.652;19.016;2023-12-07T08:48:07;12.45;;;5.37;;
64682;SDS011;51107;47.652;19.016;2023-12-07T08:50:36;13.77;;;6.45;;
64682;SDS011;51107;47.652;19.016;2023-12-07T08:53:04;23.65;;;8.70;;
64682;SDS011;51107;47.652;19.016;2023-12-07T08:55:33;15.60;;;8.30;;
64682;SDS011;51107;47.652;19.016;2023-12-07T08:58:02;18.37;;;7.97;;
64682;SDS011;51107;47.652;19.016;2023-12-07T09:00:32;5.80;;;4.40;;
64682;SDS011;51107;47.652;19.016;2023-12-07T09:03:01;9.27;;;5.30;;
64682;SDS011;51107;47.652;19.016;2023-12-07T09:05:30;11.38;;;5.60;;
64682;SDS011;51107;47.652;19.016;2023-12-07T09:07:59;11.95;;;5.90;;
64682;SDS011;51107;47.652;19.016;2023-12-07T09:10:27;12.68;;;5.87;;
64682;SDS011;51107;47.652;19.016;2023-12-07T09:12:56;17.42;;;6.75;;
64682;SDS011;51107;47.652;19.016;2023-12-07T09:15:28;26.37;;;10.75;;
64682;SDS011;51107;47.652;19.016;2023-12-07T09:17:57;16.37;;;7.85;;
64682;SDS011;51107;47.652;19.016;2023-12-07T09:20:25;13.45;;;5.82;;
64682;SDS011;51107;47.652;19.016;2023-12-07T09:22:53;13.25;;;6.15;;
64682;SDS011;51107;47.652;19.016;2023-12-07T09:25:25;13.62;;;5.95;;
64682;SDS011;51107;47.652;19.016;2023-12-07T09:27:55;10.82;;;6.30;;
64682;SDS011;51107;47.652;19.016;2023-12-07T09:30:24;11.45;;;5.72;;
64682;SDS011;51107;47.652;19.016;2023-12-07T09:32:53;17.70;;;5.87;;
64682;SDS011;51107;47.652;19.016;2023-12-07T09:53:29;4.25;;;2.67;;
64682;SDS011;51107;47.652;19.016;2023-12-07T09:56:02;5.75;;;3.78;;
64682;SDS011;51107;47.652;19.016;2023-12-07T09:58:30;5.87;;;3.00;;
64682;SDS011;51107;47.652;19.016;2023-12-07T10:01:08;3.85;;;2.85;;
64682;SDS011;51107;47.652;19.016;2023-12-07T10:03:37;4.53;;;2.58;;
64682;SDS011;51107;47.652;19.016;2023-12-07T10:06:06;8.57;;;3.53;;
64682;SDS011;51107;47.652;19.016;2023-12-07T10:08:34;3.05;;;1.48;;
64682;SDS011;51107;47.652;19.016;2023-12-07T10:11:05;4.32;;;2.47;;
64682;SDS011;51107;47.652;19.016;2023-12-07T10:13:37;3.90;;;2.78;;
64682;SDS011;51107;47.652;19.016;2023-12-07T10:16:13;6.97;;;2.55;;
64682;SDS011;51107;47.652;19.016;2023-12-07T10:18:43;9.05;;;4.97;;
64682;SDS011;51107;47.652;19.016;2023-12-07T10:21:13;17.48;;;4.15;;
64682;SDS011;51107;47.652;19.016;2023-12-07T10:23:42;13.43;;;6.32;;
64682;SDS011;51107;47.652;19.016;2023-12-07T10:26:17;12.70;;;6.40;;
64682;SDS011;51107;47.652;19.016;2023-12-07T10:28:49;13.27;;;6.82;;
64682;SDS011;51107;47.652;19.016;2023-12-07T10:31:22;20.73;;;4.43;;
64682;SDS011;51107;47.652;19.016;2023-12-07T10:33:51;10.20;;;4.22;;
64682;SDS011;51107;47.652;19.016;2023-12-07T10:36:20;15.70;;;6.28;;
64682;SDS011;51107;47.652;19.016;2023-12-07T10:38:49;8.70;;;4.80;;
64682;SDS011;51107;47.652;19.016;2023-12-07T10:41:20;15.68;;;6.70;;
64682;SDS011;51107;47.652;19.016;2023-12-07T10:46:21;15.80;;;7.22;;
64682;SDS011;51107;47.652;19.016;2023-12-07T10:48:51;7.32;;;4.25;;
64682;SDS011;51107;47.652;19.016;2023-12-07T10:51:31;19.48;;;7.93;;
64682;SDS011;51107;47.652;19.016;2023-12-07T10:54:05;7.62;;;4.40;;
64682;SDS011;51107;47.652;19.016;2023-12-07T10:56:42;5.93;;;3.42;;
64682;SDS011;51107;47.652;19.016;2023-12-07T10:59:12;6.05;;;4.53;;
64682;SDS011;51107;47.652;19.016;2023-12-07T11:01:56;6.65;;;3.62;;
64682;SDS011;51107;47.652;19.016;2023-12-07T11:04:26;10.75;;;5.18;;
64682;SDS011;51107;47.652;19.016;2023-12-07T11:06:56;8.60;;;3.22;;
64682;SDS011;51107;47.652;19.016;2023-12-07T11:09:32;10.90;;;5.55;;
64682;SDS011;51107;47.652;19.016;2023-12-07T11:12:42;10.45;;;6.05;;
64682;SDS011;51107;47.652;19.016;2023-12-07T11:15:06;9.55;;;4.93;;
64682;SDS011;51107;47.652;19.016;2023-12-07T11:18:01;10.95;;;6.12;;
64682;SDS011;51107;47.652;19.016;2023-12-07T11:20:41;8.07;;;3.78;;
64682;SDS011;51107;47.652;19.016;2023-12-07T11:23:11;7.03;;;4.07;;
64682;SDS011;51107;47.652;19.016;2023-12-07T11:25:45;6.65;;;4.07;;
64682;SDS011;51107;47.652;19.016;2023-12-07T11:28:14;8.23;;;5.25;;
64682;SDS011;51107;47.652;19.016;2023-12-07T11:30:46;16.55;;;7.03;;
64682;SDS011;51107;47.652;19.016;2023-12-07T11:33:15;8.23;;;5.10;;
64682;SDS011;51107;47.652;19.016;2023-12-07T11:36:18;13.77;;;4.82;;
64682;SDS011;51107;47.652;19.016;2023-12-07T11:41:49;7.70;;;4.82;;
64682;SDS011;51107;47.652;19.016;2023-12-07T11:44:24;7.05;;;4.00;;
64682;SDS011;51107;47.652;19.016;2023-12-07T11:47:01;5.30;;;4.05;;
64682;SDS011;51107;47.652;19.016;2023-12-07T11:49:31;8.75;;;4.55;;
64682;SDS011;51107;47.652;19.016;2023-12-07T11:52:13;8.80;;;4.68;;
64682;SDS011;51107;47.652;19.016;2023-12-07T11:54:47;10.60;;;5.10;;
64682;SDS011;51107;47.652;19.016;2023-12-07T11:57:17;13.32;;;4.70;;
64682;SDS011;51107;47.652;19.016;2023-12-07T11:59:46;9.10;;;5.82;;
64682;SDS011;51107;47.652;19.016;2023-12-07T12:02:17;8.30;;;5.65;;
64682;SDS011;51107;47.652;19.016;2023-12-07T12:04:46;11.63;;;5.97;;
64682;SDS011;51107;47.652;19.016;2023-12-07T12:07:14;16.87;;;8.23;;
64682;SDS011;51107;47.652;19.016;2023-12-07T12:09:42;8.63;;;5.00;;
64682;SDS011;51107;47.652;19.016;2023-12-07T12:12:12;8.38;;;5.35;;
64682;SDS011;51107;47.652;19.016;2023-12-07T12:14:43;9.23;;;4.90;;
64682;SDS011;51107;47.652;19.016;2023-12-07T12:17:14;9.75;;;5.22;;
64682;SDS011;51107;47.652;19.016;2023-12-07T12:19:43;7.70;;;3.85;;
64682;SDS011;51107;47.652;19.016;2023-12-07T12:22:12;7.78;;;3.35;;
64682;SDS011;51107;47.652;19.016;2023-12-07T12:24:40;11.90;;;4.53;;
64682;SDS011;51107;47.652;19.016;2023-12-07T12:27:08;8.60;;;4.47;;
64682;SDS011;51107;47.652;19.016;2023-12-07T12:29:37;10.63;;;4.45;;
64682;SDS011;51107;47.652;19.016;2023-12-07T12:32:06;9.00;;;4.85;;
64682;SDS011;51107;47.652;19.016;2023-12-07T12:34:37;11.82;;;6.28;;
64682;SDS011;51107;47.652;19.016;2023-12-07T12:37:05;14.05;;;7.15;;
64682;SDS011;51107;47.652;19.016;2023-12-07T12:39:34;7.25;;;4.90;;
64682;SDS011;51107;47.652;19.016;2023-12-07T12:42:03;9.57;;;5.32;;
64682;SDS011;51107;47.652;19.016;2023-12-07T12:44:33;8.90;;;4.82;;
64682;SDS011;51107;47.652;19.016;2023-12-07T12:47:05;6.97;;;3.72;;
64682;SDS011;51107;47.652;19.016;2023-12-07T12:49:38;9.55;;;4.43;;
64682;SDS011;51107;47.652;19.016;2023-12-07T12:52:14;10.82;;;6.12;;
64682;SDS011;51107;47.652;19.016;2023-12-07T12:54:46;15.25;;;6.68;;
64682;SDS011;51107;47.652;19.016;2023-12-07T12:57:17;11.95;;;5.57;;
64682;SDS011;51107;47.652;19.016;2023-12-07T12:59:47;8.88;;;4.97;;
64682;SDS011;51107;47.652;19.016;2023-12-07T13:02:15;10.32;;;4.97;;
64682;SDS011;51107;47.652;19.016;2023-12-07T13:04:44;9.15;;;5.53;;
64682;SDS011;51107;47.652;19.016;2023-12-07T13:07:15;14.77;;;6.90;;
64682;SDS011;51107;47.652;19.016;2023-12-07T13:09:44;13.82;;;5.45;;
64682;SDS011;51107;47.652;19.016;2023-12-07T13:12:12;10.30;;;5.53;;
64682;SDS011;51107;47.652;19.016;2023-12-07T13:14:41;16.17;;;6.18;;
64682;SDS011;51107;47.652;19.016;2023-12-07T13:17:17;13.77;;;7.03;;
64682;SDS011;51107;47.652;19.016;2023-12-07T13:19:45;12.52;;;5.70;;
64682;SDS011;51107;47.652;19.016;2023-12-07T13:22:13;12.07;;;5.57;;
64682;SDS011;51107;47.652;19.016;2023-12-07T13:24:42;9.68;;;6.00;;
64682;SDS011;51107;47.652;19.016;2023-12-07T13:27:10;14.52;;;7.55;;
64682;SDS011;51107;47.652;19.016;2023-12-07T13:29:38;16.10;;;4.97;;
64682;SDS011;51107;47.652;19.016;2023-12-07T13:32:06;10.15;;;6.47;;
64682;SDS011;51107;47.652;19.016;2023-12-07T13:34:35;11.82;;;6.05;;
64682;SDS011;51107;47.652;19.016;2023-12-07T13:37:03;10.60;;;6.00;;
64682;SDS011;51107;47.652;19.016;2023-12-07T13:39:33;15.40;;;6.93;;
64682;SDS011;51107;47.652;19.016;2023-12-07T13:42:02;10.82;;;4.82;;
64682;SDS011;51107;47.652;19.016;2023-12-07T13:44:33;12.70;;;6.12;;
64682;SDS011;51107;47.652;19.016;2023-12-07T13:47:01;8.13;;;4.25;;
64682;SDS011;51107;47.652;19.016;2023-12-07T13:49:31;8.73;;;4.37;;
64682;SDS011;51107;47.652;19.016;2023-12-07T13:52:02;11.38;;;4.35;;
64682;SDS011;51107;47.652;19.016;2023-12-07T13:54:35;9.15;;;3.35;;
64682;SDS011;51107;47.652;19.016;2023-12-07T13:57:07;8.88;;;3.90;;
64682;SDS011;51107;47.652;19.016;2023-12-07T13:59:36;6.90;;;3.72;;
64682;SDS011;51107;47.652;19.016;2023-12-07T14:02:06;5.20;;;3.25;;
64682;SDS011;51107;47.652;19.016;2023-12-07T14:04:35;8.02;;;2.65;;
64682;SDS011;51107;47.652;19.016;2023-12-07T14:07:13;5.40;;;2.45;;
64682;SDS011;51107;47.652;19.016;2023-12-07T14:09:44;6.70;;;3.10;;
64682;SDS011;51107;47.652;19.016;2023-12-07T14:12:25;4.35;;;2.92;;
64682;SDS011;51107;47.652;19.016;2023-12-07T14:14:57;6.87;;;2.72;;
64682;SDS011;51107;47.652;19.016;2023-12-07T14:17:25;10.32;;;3.87;;
64682;SDS011;51107;47.652;19.016;2023-12-07T14:20:05;14.80;;;6.03;;
64682;SDS011;51107;47.652;19.016;2023-12-07T14:22:57;18.58;;;7.68;;
64682;SDS011;51107;47.652;19.016;2023-12-07T14:25:32;13.93;;;6.72;;
64682;SDS011;51107;47.652;19.016;2023-12-07T14:28:01;12.43;;;7.03;;
64682;SDS011;51107;47.652;19.016;2023-12-07T14:30:29;13.00;;;6.55;;
64682;SDS011;51107;47.652;19.016;2023-12-07T14:32:57;14.10;;;6.53;;
64682;SDS011;51107;47.652;19.016;2023-12-07T14:35:26;17.00;;;7.80;;
64682;SDS011;51107;47.652;19.016;2023-12-07T14:37:54;12.40;;;5.65;;
64682;SDS011;51107;47.652;19.016;2023-12-07T14:40:23;14.95;;;7.37;;
64682;SDS011;51107;47.652;19.016;2023-12-07T14:42:53;9.95;;;5.60;;
64682;SDS011;51107;47.652;19.016;2023-12-07T14:45:22;9.63;;;5.25;;
64682;SDS011;51107;47.652;19.016;2023-12-07T14:47:50;19.55;;;6.65;;
64682;SDS011;51107;47.652;19.016;2023-12-07T14:50:28;15.00;;;6.40;;
64682;SDS011;51107;47.652;19.016;2023-12-07T14:52:57;13.05;;;5.87;;
64682;SDS011;51107;47.652;19.016;2023-12-07T14:55:25;11.23;;;5.45;;
64682;SDS011;51107;47.652;19.016;2023-12-07T14:57:54;10.93;;;4.50;;
64682;SDS011;51107;47.652;19.016;2023-12-07T15:00:23;10.63;;;5.93;;
64682;SDS011;51107;47.652;19.016;2023-12-07T15:02:54;16.08;;;7.57;;
64682;SDS011;51107;47.652;19.016;2023-12-07T15:05:22;13.40;;;8.40;;
64682;SDS011;51107;47.652;19.016;2023-12-07T15:07:51;20.42;;;5.50;;
64682;SDS011;51107;47.652;19.016;2023-12-07T15:10:19;5.82;;;3.90;;
64682;SDS011;51107;47.652;19.016;2023-12-07T15:12:48;6.40;;;3.45;;
64682;SDS011;51107;47.652;19.016;2023-12-07T15:15:16;5.68;;;3.35;;